Time,TemperatureF,DewpointF,PressureIn,WindDirection,WindDirectionDegrees,WindSpeedMPH,WindSpeedGustMPH,Humidity,HourlyPrecipIn,Conditions,Clouds,dailyrainin,SoftwareType,DateUTC
2013-02-24 00:00:00,26.0,20.4,29.96,West,274,1.2,3.5,79,0.00,CLR,,0.01,WeatherDisplay:10.37,2013-02-24 05:00:00,
2013-02-24 00:05:00,26.1,20.5,29.96,West,273,0.7,3.5,79,0.00,RA,,0.00,WeatherDisplay:10.37,2013-02-24 05:05:00,
2013-02-24 00:10:00,26.1,20.5,29.96,West,275,0.0,1.0,79,0.00,CLR,CLR,0.00,WeatherDisplay:10.37,2013-02-24 05:10:00,
2013-02-24 00:15:00,26.1,20.5,29.96,West,274,1.0,4.0,79,0.00,CLR,CLR,0.00,WeatherDisplay:10.37,2013-02-24 05:15:00,
2013-02-24 00:20:00,26.1,20.5,29.96,WSW,237,2.7,9.0,79,0.00,CLR,,0.00,WeatherDisplay:10.37,2013-02-24 05:20:00,
2013-02-24 00:25:00,26.2,20.6,29.96,West,265,0.0,9.0,79,0.00,CLR,CLR,0.00,WeatherDisplay:10.37,2013-02-24 05:25:00,
2013-02-24 00:30:00,26.2,20.6,29.96,West,264,0.0,0.0,79,0.00,CLR,,0.00,WeatherDisplay:10.37,2013-02-24 05:30:00,
2013-02-24 00:35:00,26.2,20.6,29.97,West,267,0.4,3.5,79,0.00,CLR,,0.00,WeatherDisplay:10.37,2013-02-24 05:35:00,
2013-02-24 00:40:00,26.2,20.6,29.96,West,265,0.0,0.0,79,0.00,CLR,,0.00,WeatherDisplay:10.37,2013-02-24 05:40:00,
2013-02-24 00:45:00,26.2,20.6,29.96,West,265,0.0,0.0,79,0.00,CLR,,0.00,WeatherDisplay:10.37,2013-02-24 05:45:00,
2013-02-24 00:50:00,26.2,20.6,29.96,West,269,0.8,6.0,79,0.00,CLR,,0.00,WeatherDisplay:10.37,2013-02-24 05:50:00,
2013-02-24 00:55:00,26.2,20.6,29.96,WSW,254,0.0,0.0,79,0.00,CLR,,0.00,WeatherDisplay:10.37,2013-02-24 05:55:00,
2013-02-24 01:00:00,26.2,20.6,29.96,West,271,0.2,0.0,79,0.00,CLR,,0.00,WeatherDisplay:10.37,2013-02-24 06:00:00,
2013-02-24 01:05:00,26.3,20.7,29.96,West,259,0.0,2.3,79,0.00,CLR,,0.00,WeatherDisplay:10.37,2013-02-24 06:05:00,
2013-02-24 01:10:00,26.3,20.7,29.96,West,269,0.0,0.0,79,0.00,CLR,,0.00,WeatherDisplay:10.37,2013-02-24 06:10:00,
2013-02-24 01:15:00,26.3,20.7,29.97,West,272,2.6,4.6,79,0.00,CLR,,0.00,WeatherDisplay:10.37,2013-02-24 06:15:00,
2013-02-24 01:20:00,26.3,20.7,29.97,West,274,3.3,5.8,79,0.00,CLR,,0.00,WeatherDisplay:10.37,2013-02-24 06:20:00,
2013-02-24 01:25:00,26.4,20.8,29.97,WSW,253,3.4,5.8,79,0.00,CLR,,0.00,WeatherDisplay:10.37,2013-02-24 06:25:00,
2013-02-24 01:30:00,26.4,20.8,29.97,West,261,0.0,1.1,79,0.00,CLR,,0.00,WeatherDisplay:10.37,2013-02-24 06:30:00,
2013-02-24 01:35:00,26.4,20.8,29.97,WSW,257,1.2,7.0,79,0.00,CLR,,0.00,WeatherDisplay:10.37,2013-02-24 06:35:00,
2013-02-24 01:40:00,26.5,20.9,29.97,West,269,2.5,9.2,79,0.00,CLR,,0.00,WeatherDisplay:10.37,2013-02-24 06:40:00,
2013-02-24 01:45:00,26.5,20.9,29.97,West,259,2.9,5.0,79,0.00,CLR,,0.00,WeatherDisplay:10.37,2013-02-24 06:45:00,
2013-02-24 01:50:00,26.5,20.9,29.97,West,273,0.4,5.8,79,0.00,CLR,,0.00,WeatherDisplay:10.37,2013-02-24 06:50:00,
2013-02-24 01:55:00,26.5,20.9,29.97,West,277,0.4,1.1,79,0.00,CLR,,0.00,WeatherDisplay:10.37,2013-02-24 06:55:00,
2013-02-24 02:00:00,26.5,20.9,29.97,West,265,1.5,6.9,79,0.00,CLR,,0.00,WeatherDisplay:10.37,2013-02-24 07:00:00,
2013-02-24 02:05:00,26.5,21.2,29.98,West,271,3.4,7.0,80,0.00,CLR,,0.00,WeatherDisplay:10.37,2013-02-24 07:05:00,
2013-02-24 02:10:00,26.5,21.2,29.98,NW,314,2.0,5.8,80,0.00,CLR,,0.00,WeatherDisplay:10.37,2013-02-24 07:10:00,
2013-02-24 02:15:00,26.4,20.8,29.98,West,271,0.8,3.5,79,0.00,CLR,,0.00,WeatherDisplay:10.37,2013-02-24 07:15:00,
2013-02-24 02:20:00,26.4,20.8,29.98,West,261,3.6,3.6,79,0.00,CLR,,0.00,WeatherDisplay:10.37,2013-02-24 07:20:00,
2013-02-24 02:25:00,26.4,20.8,29.98,West,272,0.7,2.0,79,0.00,CLR,,0.00,WeatherDisplay:10.37,2013-02-24 07:25:00,
2013-02-24 02:30:00,26.4,20.8,29.98,West,279,2.0,9.2,79,0.00,CLR,,0.00,WeatherDisplay:10.37,2013-02-24 07:30:00,
2013-02-24 02:35:00,26.4,20.8,29.98,West,263,2.2,4.6,79,0.00,CLR,,0.00,WeatherDisplay:10.37,2013-02-24 07:35:00,
2013-02-24 02:40:00,26.4,20.8,29.99,West,266,0.0,0.0,79,0.00,CLR,,0.00,WeatherDisplay:10.37,2013-02-24 07:40:00,
2013-02-24 02:45:00,26.3,20.7,29.99,West,263,0.0,3.5,79,0.00,CLR,,0.00,WeatherDisplay:10.37,2013-02-24 07:45:00,
2013-02-24 02:50:00,26.3,21.0,29.98,West,263,0.0,2.3,80,0.00,CLR,,0.00,WeatherDisplay:10.37,2013-02-24 07:50:00,
2013-02-24 02:55:00,26.3,21.0,29.98,West,274,0.0,3.5,80,0.00,CLR,,0.00,WeatherDisplay:10.37,2013-02-24 07:55:00,
2013-02-24 03:00:00,26.2,21.2,29.98,West,262,0.3,3.5,81,0.00,CLR,,0.00,WeatherDisplay:10.37,2013-02-24 08:00:00,
2013-02-24 03:05:00,26.2,21.2,29.98,West,262,0.5,0.0,81,0.00,CLR,,0.00,WeatherDisplay:10.37,2013-02-24 08:05:00,
2013-02-24 03:10:00,26.0,21.3,29.98,West,267,0.0,0.0,82,0.00,CLR,,0.00,WeatherDisplay:10.37,2013-02-24 08:10:00,
2013-02-24 03:15:00,25.9,21.2,29.98,West,267,0.0,3.5,82,0.00,CLR,,0.00,WeatherDisplay:10.37,2013-02-24 08:15:00,
2013-02-24 03:20:00,25.7,21.3,29.97,West,268,0.8,6.9,83,0.00,CLR,,0.00,WeatherDisplay:10.37,2013-02-24 08:20:00,
2013-02-24 03:25:00,25.5,21.1,29.98,WSW,257,0.0,3.5,83,0.00,CLR,,0.00,WeatherDisplay:10.37,2013-02-24 08:25:00,
2013-02-24 03:30:00,25.2,20.8,29.98,West,261,0.8,3.5,83,0.00,CLR,,0.00,WeatherDisplay:10.37,2013-02-24 08:30:00,
2013-02-24 03:35:00,25.0,20.8,29.98,WSW,238,1.3,4.6,84,0.00,CLR,,0.00,WeatherDisplay:10.37,2013-02-24 08:35:00,
2013-02-24 03:40:00,24.8,20.7,29.98,WSW,244,0.0,3.5,84,0.00,CLR,,0.00,WeatherDisplay:10.37,2013-02-24 08:40:00,
2013-02-24 03:45:00,24.6,20.5,29.98,WSW,238,0.0,2.3,84,0.00,CLR,,0.00,WeatherDisplay:10.37,2013-02-24 08:45:00,
2013-02-24 03:50:00,24.5,20.4,29.98,WSW,242,0.3,1.1,84,0.00,CLR,,0.00,WeatherDisplay:10.37,2013-02-24 08:50:00,
2013-02-24 03:55:00,24.3,20.4,29.98,WSW,250,0.0,0.0,85,0.00,CLR,,0.00,WeatherDisplay:10.37,2013-02-24 08:55:00,
2013-02-24 04:00:00,24.2,20.3,29.98,WSW,250,0.0,3.5,85,0.00,CLR,,0.00,WeatherDisplay:10.37,2013-02-24 09:00:00,
2013-02-24 04:05:00,24.0,20.1,29.98,WSW,252,0.0,2.3,85,0.00,CLR,,0.00,WeatherDisplay:10.37,2013-02-24 09:05:00,
2013-02-24 04:10:00,23.9,20.0,29.98,WSW,257,0.0,2.3,85,0.00,CLR,,0.00,WeatherDisplay:10.37,2013-02-24 09:10:00,
2013-02-24 04:15:00,23.7,19.9,29.99,WSW,257,0.5,3.5,85,0.00,CLR,,0.00,WeatherDisplay:10.37,2013-02-24 09:15:00,
2013-02-24 04:20:00,23.5,19.9,29.99,WSW,258,0.1,1.1,86,0.00,CLR,,0.00,WeatherDisplay:10.37,2013-02-24 09:20:00,
2013-02-24 04:25:00,23.4,19.8,29.99,West,265,0.2,3.5,86,0.00,CLR,,0.00,WeatherDisplay:10.37,2013-02-24 09:25:00,
2013-02-24 04:30:00,23.3,19.7,29.99,WSW,244,0.0,3.5,86,0.00,CLR,,0.00,WeatherDisplay:10.37,2013-02-24 09:30:00,
2013-02-24 04:35:00,23.2,19.6,29.99,WSW,244,0.0,3.5,86,0.00,CLR,,0.00,WeatherDisplay:10.37,2013-02-24 09:35:00,
2013-02-24 04:40:00,23.0,19.4,29.99,WSW,253,0.0,0.0,86,0.00,CLR,,0.00,WeatherDisplay:10.37,2013-02-24 09:40:00,
2013-02-24 04:45:00,22.9,19.3,29.99,WSW,252,0.0,0.0,86,0.00,CLR,,0.00,WeatherDisplay:10.37,2013-02-24 09:45:00,
2013-02-24 04:50:00,22.8,19.2,29.99,WSW,252,0.1,2.3,86,0.00,CLR,,0.00,WeatherDisplay:10.37,2013-02-24 09:50:00,
2013-02-24 04:55:00,22.6,19.0,30.00,WSW,252,0.0,0.0,86,0.00,CLR,,0.00,WeatherDisplay:10.37,2013-02-24 09:55:00,
2013-02-24 05:00:00,22.5,18.9,29.99,WSW,252,0.0,0.0,86,0.00,CLR,,0.00,WeatherDisplay:10.37,2013-02-24 10:00:00,
2013-02-24 05:05:00,22.4,18.8,30.00,WSW,252,0.0,0.0,86,0.00,CLR,,0.00,WeatherDisplay:10.37,2013-02-24 10:05:00,
2013-02-24 05:10:00,22.2,18.9,30.00,WSW,252,0.0,0.0,87,0.00,CLR,,0.00,WeatherDisplay:10.37,2013-02-24 10:10:00,
2013-02-24 05:15:00,22.2,18.9,30.01,WSW,252,0.5,0.0,87,0.00,CLR,,0.00,WeatherDisplay:10.37,2013-02-24 10:15:00,
2013-02-24 05:20:00,22.1,18.8,30.01,WSW,250,0.0,0.0,87,0.00,CLR,,0.00,WeatherDisplay:10.37,2013-02-24 10:20:00,
2013-02-24 05:25:00,22.0,18.7,30.01,WSW,250,0.0,3.5,87,0.00,CLR,,0.00,WeatherDisplay:10.37,2013-02-24 10:25:00,
2013-02-24 05:30:00,21.9,18.6,30.02,WSW,250,0.0,0.0,87,0.00,CLR,,0.00,WeatherDisplay:10.37,2013-02-24 10:30:00,
2013-02-24 05:35:00,21.8,18.5,30.02,WSW,252,0.0,0.0,87,0.00,CLR,,0.00,WeatherDisplay:10.37,2013-02-24 10:35:00,
2013-02-24 05:40:00,21.8,18.5,30.02,WSW,252,0.0,0.0,87,0.00,CLR,,0.00,WeatherDisplay:10.37,2013-02-24 10:40:00,
2013-02-24 05:45:00,21.7,18.4,30.01,WSW,252,0.0,0.0,87,0.00,CLR,,0.00,WeatherDisplay:10.37,2013-02-24 10:45:00,
2013-02-24 05:50:00,21.6,18.3,30.01,WSW,253,0.0,0.0,87,0.00,CLR,,0.00,WeatherDisplay:10.37,2013-02-24 10:50:00,
2013-02-24 05:55:00,21.5,18.2,30.02,WSW,253,0.0,0.0,87,0.00,CLR,,0.00,WeatherDisplay:10.37,2013-02-24 10:55:00,
2013-02-24 06:00:00,21.3,18.0,30.02,WSW,253,0.0,0.0,87,0.00,CLR,,0.00,WeatherDisplay:10.37,2013-02-24 11:00:00,
2013-02-24 06:05:00,21.2,17.9,30.02,WSW,253,0.0,0.0,87,0.00,CLR,,0.00,WeatherDisplay:10.37,2013-02-24 11:05:00,
2013-02-24 06:10:00,21.1,17.8,30.02,WSW,253,0.0,0.0,87,0.00,CLR,,0.00,WeatherDisplay:10.37,2013-02-24 11:10:00,
2013-02-24 06:15:00,20.9,17.6,30.02,WSW,253,0.0,0.0,87,0.00,CLR,,0.00,WeatherDisplay:10.37,2013-02-24 11:15:00,
2013-02-24 06:20:00,20.9,17.9,30.03,WSW,253,0.0,0.0,88,0.00,CLR,,0.00,WeatherDisplay:10.37,2013-02-24 11:20:00,
2013-02-24 06:25:00,20.8,17.8,30.03,WSW,253,0.0,0.0,88,0.00,CLR,,0.00,WeatherDisplay:10.37,2013-02-24 11:25:00,
2013-02-24 06:30:00,20.7,17.7,30.03,WSW,253,0.0,0.0,88,0.00,CLR,,0.00,WeatherDisplay:10.37,2013-02-24 11:30:00,
2013-02-24 06:35:00,20.7,17.7,30.04,WSW,253,0.0,0.0,88,0.00,CLR,,0.00,WeatherDisplay:10.37,2013-02-24 11:35:00,
2013-02-24 06:40:00,20.5,17.5,30.04,WSW,253,0.0,0.0,88,0.00,CLR,,0.00,WeatherDisplay:10.37,2013-02-24 11:40:00,
2013-02-24 06:45:00,20.4,17.4,30.05,WSW,253,0.0,0.0,88,0.00,CLR,,0.00,WeatherDisplay:10.37,2013-02-24 11:45:00,
2013-02-24 06:50:00,20.3,17.3,30.05,WSW,253,0.0,0.0,88,0.00,CLR,,0.00,WeatherDisplay:10.37,2013-02-24 11:50:00,
2013-02-24 06:55:00,20.2,17.2,30.05,WSW,253,0.0,0.0,88,0.00,CLR,,0.00,WeatherDisplay:10.37,2013-02-24 11:55:00,
2013-02-24 07:00:00,20.0,17.0,30.05,WSW,253,0.0,0.0,88,0.00,CLR,,0.00,WeatherDisplay:10.37,2013-02-24 12:00:00,
2013-02-24 07:05:00,19.7,16.7,30.05,WSW,253,0.0,0.0,88,0.00,CLR,,0.00,WeatherDisplay:10.37,2013-02-24 12:05:00,
2013-02-24 07:10:00,19.7,16.7,30.05,WSW,253,0.0,0.0,88,0.00,CLR,,0.00,WeatherDisplay:10.37,2013-02-24 12:10:00,
2013-02-24 07:15:00,19.7,17.0,30.05,WSW,253,0.0,0.0,89,0.00,CLR,,0.00,WeatherDisplay:10.37,2013-02-24 12:15:00,
2013-02-24 07:20:00,19.4,16.4,30.05,WSW,253,0.0,0.0,88,0.00,CLR,,0.00,WeatherDisplay:10.37,2013-02-24 12:20:00,
2013-02-24 07:25:00,19.2,16.5,30.06,WSW,253,0.0,0.0,89,0.00,CLR,,0.00,WeatherDisplay:10.37,2013-02-24 12:25:00,
2013-02-24 07:30:00,19.1,16.4,30.06,WSW,253,0.0,0.0,89,0.00,CLR,,0.00,WeatherDisplay:10.37,2013-02-24 12:30:00,
2013-02-24 07:35:00,18.9,16.2,30.06,WSW,253,0.0,0.0,89,0.00,CLR,,0.00,WeatherDisplay:10.37,2013-02-24 12:35:00,
2013-02-24 07:40:00,18.8,16.1,30.06,WSW,253,0.0,0.0,89,0.00,CLR,,0.00,WeatherDisplay:10.37,2013-02-24 12:40:00,
2013-02-24 07:45:00,18.7,16.0,30.06,WSW,253,0.0,0.0,89,0.00,CLR,,0.00,WeatherDisplay:10.37,2013-02-24 12:45:00,
2013-02-24 07:50:00,18.6,15.9,30.06,WSW,253,0.0,0.0,89,0.00,CLR,,0.00,WeatherDisplay:10.37,2013-02-24 12:50:00,
2013-02-24 07:55:00,18.6,16.2,30.06,WSW,253,0.0,0.0,90,0.00,CLR,,0.00,WeatherDisplay:10.37,2013-02-24 12:55:00,
2013-02-24 08:00:00,18.8,16.4,30.06,WSW,253,0.0,0.0,90,0.00,CLR,,0.00,WeatherDisplay:10.37,2013-02-24 13:00:00,
2013-02-24 08:05:00,18.9,16.5,30.06,WSW,253,0.0,0.0,90,0.00,CLR,,0.00,WeatherDisplay:10.37,2013-02-24 13:05:00,
2013-02-24 08:10:00,19.0,16.6,30.07,WSW,253,0.0,0.0,90,0.00,CLR,,0.00,WeatherDisplay:10.37,2013-02-24 13:10:00,
2013-02-24 08:15:00,19.3,16.8,30.07,WSW,253,0.2,3.5,90,0.00,CLR,,0.00,WeatherDisplay:10.37,2013-02-24 13:15:00,
2013-02-24 08:20:00,19.5,17.0,30.07,WSW,253,0.0,0.0,90,0.00,CLR,,0.00,WeatherDisplay:10.37,2013-02-24 13:20:00,
2013-02-24 08:25:00,19.7,17.2,30.08,WSW,253,0.6,0.0,90,0.00,CLR,,0.00,WeatherDisplay:10.37,2013-02-24 13:25:00,
2013-02-24 08:30:00,20.0,17.5,30.08,WSW,239,1.5,5.8,90,0.00,CLR,,0.00,WeatherDisplay:10.37,2013-02-24 13:30:00,
2013-02-24 08:35:00,20.4,17.9,30.08,WSW,237,0.0,0.0,90,0.00,CLR,,0.00,WeatherDisplay:10.37,2013-02-24 13:35:00,
2013-02-24 08:40:00,20.7,18.2,30.08,WSW,237,0.0,0.0,90,0.00,CLR,,0.00,WeatherDisplay:10.37,2013-02-24 13:40:00,
2013-02-24 08:45:00,21.1,18.6,30.08,WSW,237,0.0,0.0,90,0.00,CLR,,0.00,WeatherDisplay:10.37,2013-02-24 13:45:00,
2013-02-24 08:50:00,21.3,18.6,30.08,WSW,237,0.0,0.0,89,0.00,CLR,,0.00,WeatherDisplay:10.37,2013-02-24 13:50:00,
2013-02-24 08:55:00,21.6,18.9,30.08,SW,227,1.0,4.6,89,0.00,CLR,,0.00,WeatherDisplay:10.37,2013-02-24 13:55:00,
2013-02-24 09:00:00,21.9,19.2,30.08,SW,229,0.0,1.1,89,0.00,CLR,,0.00,WeatherDisplay:10.37,2013-02-24 14:00:00,
2013-02-24 09:05:00,22.2,19.2,30.08,West,259,0.0,5.8,88,0.00,CLR,,0.00,WeatherDisplay:10.37,2013-02-24 14:05:00,
2013-02-24 09:10:00,22.5,19.5,30.08,WSW,249,0.6,0.0,88,0.00,CLR,,0.00,WeatherDisplay:10.37,2013-02-24 14:10:00,
2013-02-24 09:15:00,22.8,19.8,30.08,West,263,0.0,1.1,88,0.00,CLR,,0.00,WeatherDisplay:10.37,2013-02-24 14:15:00,
2013-02-24 09:20:00,23.2,19.9,30.09,West,263,0.0,0.0,87,0.00,CLR,,0.00,WeatherDisplay:10.37,2013-02-24 14:20:00,
2013-02-24 09:25:00,23.5,19.9,30.09,West,262,0.0,0.0,86,0.00,CLR,,0.00,WeatherDisplay:10.37,2013-02-24 14:25:00,
2013-02-24 09:30:00,23.9,20.3,30.09,West,279,0.0,3.5,86,0.00,CLR,,0.00,WeatherDisplay:10.37,2013-02-24 14:30:00,
2013-02-24 09:35:00,24.3,20.4,30.09,West,279,0.0,0.0,85,0.00,CLR,,0.00,WeatherDisplay:10.37,2013-02-24 14:35:00,
2013-02-24 09:40:00,24.6,20.5,30.09,West,279,0.0,3.5,84,0.00,CLR,,0.00,WeatherDisplay:10.37,2013-02-24 14:40:00,
2013-02-24 09:45:00,24.9,20.8,30.09,West,279,0.0,0.0,84,0.00,CLR,,0.00,WeatherDisplay:10.37,2013-02-24 14:45:00,
2013-02-24 09:50:00,25.2,20.8,30.09,West,279,1.0,2.3,83,0.00,CLR,,0.00,WeatherDisplay:10.37,2013-02-24 14:50:00,
2013-02-24 09:55:00,25.5,21.1,30.09,West,279,0.0,0.0,83,0.00,CLR,,0.00,WeatherDisplay:10.37,2013-02-24 14:55:00,
2013-02-24 10:00:00,25.8,21.1,30.09,West,278,0.0,0.0,82,0.00,CLR,,0.00,WeatherDisplay:10.37,2013-02-24 15:00:00,
2013-02-24 10:05:00,26.2,21.5,30.09,West,268,0.2,3.5,82,0.00,CLR,,0.00,WeatherDisplay:10.37,2013-02-24 15:05:00,
2013-02-24 10:10:00,26.5,21.5,30.09,West,268,0.0,0.0,81,0.00,CLR,,0.00,WeatherDisplay:10.37,2013-02-24 15:10:00,
2013-02-24 10:15:00,26.9,21.8,30.09,West,268,0.0,0.0,81,0.00,CLR,,0.00,WeatherDisplay:10.37,2013-02-24 15:15:00,
2013-02-24 10:20:00,27.2,21.8,30.09,West,268,0.0,0.0,80,0.00,CLR,,0.00,WeatherDisplay:10.37,2013-02-24 15:20:00,
2013-02-24 10:25:00,27.5,21.8,30.09,West,268,0.0,0.0,79,0.00,CLR,,0.00,WeatherDisplay:10.37,2013-02-24 15:25:00,
2013-02-24 10:30:00,27.8,22.1,30.09,West,268,0.0,0.0,79,0.00,CLR,,0.00,WeatherDisplay:10.37,2013-02-24 15:30:00,
2013-02-24 10:35:00,28.3,22.3,30.09,West,268,0.0,0.0,78,0.00,CLR,,0.00,WeatherDisplay:10.37,2013-02-24 15:35:00,
2013-02-24 10:40:00,28.5,22.2,30.10,West,267,0.0,0.0,77,0.00,CLR,,0.00,WeatherDisplay:10.37,2013-02-24 15:40:00,
2013-02-24 10:45:00,28.7,22.4,30.10,West,262,0.0,4.0,77,0.00,CLR,CLR,0.00,WeatherDisplay:10.37,2013-02-24 15:45:00,
2013-02-24 10:50:00,29.2,23.2,30.10,WSW,252,0.1,0.0,78,0.00,CLR,,0.00,WeatherDisplay:10.37,2013-02-24 15:50:00,
2013-02-24 10:55:00,29.5,22.9,30.11,WSW,252,0.0,0.0,76,0.00,CLR,,0.00,WeatherDisplay:10.37,2013-02-24 15:55:00,
2013-02-24 11:00:00,29.7,23.1,30.11,WSW,248,0.9,0.0,76,0.00,CLR,,0.00,WeatherDisplay:10.37,2013-02-24 16:00:00,
2013-02-24 11:05:00,30.1,23.1,30.11,WSW,243,0.1,3.5,75,0.00,CLR,,0.00,WeatherDisplay:10.37,2013-02-24 16:05:00,
2013-02-24 11:10:00,30.5,23.5,30.11,SW,228,0.0,0.0,75,0.00,CLR,,0.00,WeatherDisplay:10.37,2013-02-24 16:10:00,
2013-02-24 11:15:00,30.6,23.3,30.11,SW,232,1.0,4.6,74,0.00,CLR,,0.00,WeatherDisplay:10.37,2013-02-24 16:15:00,
2013-02-24 11:20:00,30.8,23.5,30.12,SSW,204,0.2,0.0,74,0.00,CLR,,0.00,WeatherDisplay:10.37,2013-02-24 16:20:00,
2013-02-24 11:25:00,30.9,23.3,30.11,WSW,237,2.0,3.5,73,0.00,CLR,,0.00,WeatherDisplay:10.37,2013-02-24 16:25:00,
2013-02-24 11:30:00,31.1,23.5,30.11,South,169,0.0,1.1,73,0.00,CLR,,0.00,WeatherDisplay:10.37,2013-02-24 16:30:00,
2013-02-24 11:35:00,31.5,23.5,30.11,SSW,213,0.0,3.5,72,0.00,CLR,,0.00,WeatherDisplay:10.37,2013-02-24 16:35:00,
2013-02-24 11:40:00,31.5,23.5,30.12,SW,229,0.0,0.0,72,0.00,CLR,,0.00,WeatherDisplay:10.37,2013-02-24 16:40:00,
2013-02-24 11:45:00,31.9,23.6,30.11,SW,229,0.0,0.0,71,0.00,CLR,,0.00,WeatherDisplay:10.37,2013-02-24 16:45:00,
2013-02-24 11:50:00,32.2,23.5,30.11,SW,229,0.5,0.0,70,0.00,CLR,,0.00,WeatherDisplay:10.37,2013-02-24 16:50:00,
2013-02-24 11:55:00,32.3,23.6,30.12,SW,230,0.1,4.6,70,0.00,CLR,,0.00,WeatherDisplay:10.37,2013-02-24 16:55:00,
2013-02-24 12:00:00,32.3,23.6,30.12,West,265,2.8,4.6,70,0.00,CLR,,0.00,WeatherDisplay:10.37,2013-02-24 17:00:00,
2013-02-24 12:05:00,32.3,22.9,30.12,West,265,0.0,0.0,68,0.00,CLR,,0.00,WeatherDisplay:10.37,2013-02-24 17:05:00,
2013-02-24 12:10:00,32.6,23.2,30.11,West,270,0.0,4.6,68,0.00,CLR,,0.00,WeatherDisplay:10.37,2013-02-24 17:10:00,
2013-02-24 12:15:00,32.7,23.3,30.12,North,350,0.2,4.6,68,0.00,CLR,,0.00,WeatherDisplay:10.37,2013-02-24 17:15:00,
2013-02-24 12:20:00,32.5,23.1,30.12,WNW,302,0.0,0.0,68,0.00,CLR,,0.00,WeatherDisplay:10.37,2013-02-24 17:20:00,
2013-02-24 12:25:00,32.6,23.6,30.12,West,278,0.1,2.3,69,0.00,CLR,,0.00,WeatherDisplay:10.37,2013-02-24 17:25:00,
2013-02-24 12:30:00,33.0,23.6,30.12,WNW,285,0.0,0.0,68,0.00,CLR,,0.00,WeatherDisplay:10.37,2013-02-24 17:30:00,
2013-02-24 12:35:00,33.1,23.0,30.12,West,268,0.0,5.8,66,0.00,CLR,,0.00,WeatherDisplay:10.37,2013-02-24 17:35:00,
2013-02-24 12:40:00,33.0,22.5,30.12,WNW,293,2.5,4.0,65,0.00,CLR,,0.00,WeatherDisplay:10.37,2013-02-24 17:40:00,
2013-02-24 12:45:00,33.0,22.9,30.12,WNW,288,0.6,7.0,66,0.00,CLR,,0.00,WeatherDisplay:10.37,2013-02-24 17:45:00,
2013-02-24 12:50:00,33.0,22.5,30.12,WNW,288,0.9,2.3,65,0.00,CLR,,0.00,WeatherDisplay:10.37,2013-02-24 17:50:00,
2013-02-24 12:55:00,33.2,23.1,30.12,West,278,0.0,0.0,66,0.00,CLR,,0.00,WeatherDisplay:10.37,2013-02-24 17:55:00,
2013-02-24 13:00:00,33.4,22.9,30.12,West,267,0.0,3.5,65,0.00,CLR,,0.00,WeatherDisplay:10.37,2013-02-24 18:00:00,
2013-02-24 13:05:00,33.7,23.2,30.12,WSW,253,0.6,3.5,65,0.00,CLR,,0.00,WeatherDisplay:10.37,2013-02-24 18:05:00,
2013-02-24 13:10:00,33.9,23.4,30.12,West,265,0.0,0.0,65,0.00,CLR,,0.00,WeatherDisplay:10.37,2013-02-24 18:10:00,
2013-02-24 13:15:00,34.4,24.2,30.12,WNW,282,0.0,0.0,66,0.00,CLR,,0.00,WeatherDisplay:10.37,2013-02-24 18:15:00,
2013-02-24 13:20:00,34.6,23.7,30.12,WNW,290,0.0,2.3,64,0.00,CLR,,0.00,WeatherDisplay:10.37,2013-02-24 18:20:00,
2013-02-24 13:25:00,34.6,23.3,30.12,WSW,257,1.4,0.0,63,0.00,CLR,,0.00,WeatherDisplay:10.37,2013-02-24 18:25:00,
2013-02-24 13:30:00,34.8,23.9,30.12,WSW,254,0.1,4.0,64,0.00,CLR,,0.00,WeatherDisplay:10.37,2013-02-24 18:30:00,
2013-02-24 13:35:00,34.9,23.6,30.11,WSW,253,0.0,3.5,63,0.00,CLR,,0.00,WeatherDisplay:10.37,2013-02-24 18:35:00,
2013-02-24 13:40:00,35.1,23.8,30.11,WSW,252,0.0,6.9,63,0.00,CLR,,0.00,WeatherDisplay:10.37,2013-02-24 18:40:00,
2013-02-24 13:45:00,35.0,23.7,30.11,West,279,0.0,3.0,63,0.00,CLR,,0.00,WeatherDisplay:10.37,2013-02-24 18:45:00,
2013-02-24 13:50:00,35.6,24.2,30.11,WSW,246,1.0,3.0,63,0.00,CLR,,0.00,WeatherDisplay:10.37,2013-02-24 18:50:00,
2013-02-24 13:55:00,35.7,23.2,30.11,WSW,241,0.6,5.8,60,0.00,CLR,,0.00,WeatherDisplay:10.37,2013-02-24 18:55:00,
2013-02-24 14:00:00,35.7,23.9,30.11,WNW,282,0.0,5.8,62,0.00,CLR,,0.00,WeatherDisplay:10.37,2013-02-24 19:00:00,
2013-02-24 14:05:00,35.7,23.9,30.11,WNW,290,0.1,0.0,62,0.00,CLR,,0.00,WeatherDisplay:10.37,2013-02-24 19:05:00,
2013-02-24 14:10:00,35.5,23.8,30.11,WNW,284,0.0,0.0,62,0.00,CLR,,0.00,WeatherDisplay:10.37,2013-02-24 19:10:00,
2013-02-24 14:15:00,35.6,23.9,30.10,West,264,1.2,5.0,62,0.00,CLR,,0.00,WeatherDisplay:10.37,2013-02-24 19:15:00,
2013-02-24 14:20:00,35.6,24.2,30.10,NW,306,1.5,3.0,63,0.00,CLR,,0.00,WeatherDisplay:10.37,2013-02-24 19:20:00,
2013-02-24 14:25:00,35.7,24.3,30.10,WNW,282,0.0,0.0,63,0.00,CLR,,0.00,WeatherDisplay:10.37,2013-02-24 19:25:00,
2013-02-24 14:30:00,35.9,24.1,30.10,WNW,282,0.0,0.0,62,0.00,CLR,,0.00,WeatherDisplay:10.37,2013-02-24 19:30:00,
2013-02-24 14:35:00,36.0,24.2,30.10,WNW,291,0.0,0.0,62,0.00,CLR,,0.00,WeatherDisplay:10.37,2013-02-24 19:35:00,
2013-02-24 14:40:00,36.0,24.6,30.10,WNW,290,0.1,0.0,63,0.00,CLR,,0.00,WeatherDisplay:10.37,2013-02-24 19:40:00,
2013-02-24 14:45:00,35.9,24.1,30.10,WNW,298,0.0,1.1,62,0.00,CLR,,0.00,WeatherDisplay:10.37,2013-02-24 19:45:00,
2013-02-24 14:50:00,35.8,24.4,30.10,NW,316,0.0,0.0,63,0.00,CLR,,0.00,WeatherDisplay:10.37,2013-02-24 19:50:00,
2013-02-24 14:55:00,36.5,25.5,30.10,NW,316,0.0,2.3,64,0.00,CLR,,0.00,WeatherDisplay:10.37,2013-02-24 19:55:00,
2013-02-24 15:00:00,36.5,24.3,30.10,WNW,283,0.1,5.8,61,0.00,CLR,,0.00,WeatherDisplay:10.37,2013-02-24 20:00:00,
2013-02-24 15:05:00,36.5,24.3,30.10,WNW,285,0.0,0.0,61,0.00,CLR,,0.00,WeatherDisplay:10.37,2013-02-24 20:05:00,
2013-02-24 15:10:00,37.0,24.8,30.09,WNW,287,0.0,1.1,61,0.00,CLR,,0.00,WeatherDisplay:10.37,2013-02-24 20:10:00,
2013-02-24 15:15:00,37.5,25.3,30.10,WNW,288,0.0,0.0,61,0.00,CLR,,0.00,WeatherDisplay:10.37,2013-02-24 20:15:00,
2013-02-24 15:20:00,37.5,24.9,30.10,West,272,0.0,0.0,60,0.00,CLR,,0.00,WeatherDisplay:10.37,2013-02-24 20:20:00,
2013-02-24 15:25:00,37.8,25.1,30.10,WNW,303,0.0,0.0,60,0.00,CLR,,0.00,WeatherDisplay:10.37,2013-02-24 20:25:00,
2013-02-24 15:30:00,37.0,24.4,30.10,NW,321,0.0,3.5,60,0.00,CLR,,0.00,WeatherDisplay:10.37,2013-02-24 20:30:00,
2013-02-24 15:35:00,36.9,24.7,30.10,WNW,299,0.3,5.8,61,0.00,CLR,,0.00,WeatherDisplay:10.37,2013-02-24 20:35:00,
2013-02-24 15:40:00,36.9,24.7,30.10,WNW,295,0.5,3.5,61,0.00,CLR,,0.00,WeatherDisplay:10.37,2013-02-24 20:40:00,
2013-02-24 15:45:00,37.2,25.4,30.11,WNW,296,0.0,0.0,62,0.00,CLR,,0.00,WeatherDisplay:10.37,2013-02-24 20:45:00,
2013-02-24 15:50:00,37.1,24.5,30.11,NW,315,0.1,3.5,60,0.00,CLR,,0.00,WeatherDisplay:10.37,2013-02-24 20:50:00,
2013-02-24 15:55:00,37.2,24.6,30.11,NW,313,0.0,3.5,60,0.00,CLR,,0.00,WeatherDisplay:10.37,2013-02-24 20:55:00,
2013-02-24 16:00:00,36.8,24.2,30.11,NW,320,0.0,1.1,60,0.00,CLR,,0.00,WeatherDisplay:10.37,2013-02-24 21:00:00,
2013-02-24 16:05:00,37.0,24.4,30.11,WNW,290,0.9,5.8,60,0.00,CLR,,0.00,WeatherDisplay:10.37,2013-02-24 21:05:00,
2013-02-24 16:10:00,37.0,24.4,30.11,WNW,292,0.0,0.0,60,0.00,CLR,,0.00,WeatherDisplay:10.37,2013-02-24 21:10:00,
2013-02-24 16:15:00,37.3,25.1,30.11,West,273,0.0,0.0,61,0.00,CLR,,0.00,WeatherDisplay:10.37,2013-02-24 21:15:00,
2013-02-24 16:20:00,38.0,25.7,30.11,West,273,0.0,0.0,61,0.00,CLR,,0.00,WeatherDisplay:10.37,2013-02-24 21:20:00,
2013-02-24 16:25:00,37.8,24.7,30.11,NNW,327,0.0,1.1,59,0.00,CLR,,0.00,WeatherDisplay:10.37,2013-02-24 21:25:00,
2013-02-24 16:30:00,37.1,24.1,30.11,NNW,330,3.5,6.9,59,0.00,CLR,,0.00,WeatherDisplay:10.37,2013-02-24 21:30:00,
2013-02-24 16:35:00,36.4,23.8,30.11,NNW,330,0.0,3.5,60,0.00,CLR,,0.00,WeatherDisplay:10.37,2013-02-24 21:35:00,
2013-02-24 16:40:00,36.7,24.5,30.11,NW,318,0.8,3.5,61,0.00,CLR,,0.00,WeatherDisplay:10.37,2013-02-24 21:40:00,
2013-02-24 16:45:00,36.9,23.9,30.11,NW,320,0.0,0.0,59,0.00,CLR,CLR,0.00,WeatherDisplay:10.37,2013-02-24 21:45:00,
2013-02-24 16:50:00,37.4,24.8,30.11,NW,318,0.0,0.0,60,0.00,CLR,,0.00,WeatherDisplay:10.37,2013-02-24 21:50:00,
2013-02-24 16:55:00,37.9,24.8,30.11,NW,318,1.0,3.5,59,0.00,CLR,,0.00,WeatherDisplay:10.37,2013-02-24 21:55:00,
2013-02-24 17:00:00,37.3,23.8,30.11,NW,319,0.0,5.0,58,0.00,CLR,CLR,0.00,WeatherDisplay:10.37,2013-02-24 22:00:00,
2013-02-24 17:05:00,37.0,24.4,30.11,NW,321,0.0,0.0,60,0.00,CLR,CLR,0.00,WeatherDisplay:10.37,2013-02-24 22:05:00,
2013-02-24 17:10:00,37.1,24.5,30.11,NW,321,0.0,0.0,60,0.00,CLR,,0.00,WeatherDisplay:10.37,2013-02-24 22:10:00,
2013-02-24 17:15:00,37.4,24.8,30.11,NW,321,0.0,0.0,60,0.00,CLR,,0.00,WeatherDisplay:10.37,2013-02-24 22:15:00,
2013-02-24 17:20:00,37.6,25.0,30.11,NW,321,0.1,0.0,60,0.00,CLR,,0.00,WeatherDisplay:10.37,2013-02-24 22:20:00,
2013-02-24 17:25:00,37.5,24.1,30.11,NW,321,0.0,0.0,58,0.00,CLR,,0.00,WeatherDisplay:10.37,2013-02-24 22:25:00,
2013-02-24 17:30:00,37.4,24.4,30.12,NW,321,0.0,0.0,59,0.00,CLR,,0.00,WeatherDisplay:10.37,2013-02-24 22:30:00,
2013-02-24 17:35:00,36.8,23.8,30.12,NW,321,0.0,3.0,59,0.00,CLR,CLR,0.00,WeatherDisplay:10.37,2013-02-24 22:35:00,
2013-02-24 17:40:00,36.5,24.3,30.12,NW,321,0.0,1.1,61,0.00,CLR,,0.00,WeatherDisplay:10.37,2013-02-24 22:40:00,
2013-02-24 17:45:00,36.4,24.6,30.12,NW,321,0.0,0.0,62,0.00,CLR,CLR,0.00,WeatherDisplay:10.37,2013-02-24 22:45:00,
2013-02-24 17:50:00,36.6,24.4,30.12,NW,321,0.0,0.0,61,0.00,CLR,,0.00,WeatherDisplay:10.37,2013-02-24 22:50:00,
2013-02-24 17:55:00,36.8,24.6,30.12,NW,321,0.0,0.0,61,0.00,CLR,,0.00,WeatherDisplay:10.37,2013-02-24 22:55:00,
2013-02-24 18:00:00,36.9,24.7,30.12,NW,321,0.0,0.0,61,0.00,CLR,,0.00,WeatherDisplay:10.37,2013-02-24 23:00:00,
2013-02-24 18:05:00,36.9,24.3,30.12,NW,321,0.0,0.0,60,0.00,CLR,,0.00,WeatherDisplay:10.37,2013-02-24 23:05:00,
2013-02-24 18:10:00,36.8,24.2,30.12,NW,321,0.0,0.0,60,0.00,CLR,,0.00,WeatherDisplay:10.37,2013-02-24 23:10:00,
2013-02-24 18:15:00,36.5,23.9,30.12,NW,321,0.0,0.0,60,0.00,CLR,,0.00,WeatherDisplay:10.37,2013-02-24 23:15:00,
2013-02-24 18:20:00,36.1,23.9,30.12,NW,321,0.0,0.0,61,0.00,CLR,,0.00,WeatherDisplay:10.37,2013-02-24 23:20:00,
2013-02-24 18:25:00,35.7,23.9,30.12,NW,321,0.0,0.0,62,0.00,CLR,,0.00,WeatherDisplay:10.37,2013-02-24 23:25:00,
2013-02-24 18:30:00,35.4,23.7,30.12,NW,321,0.0,0.0,62,0.00,CLR,,0.00,WeatherDisplay:10.37,2013-02-24 23:30:00,
2013-02-24 18:35:00,35.1,23.8,30.12,NW,321,0.0,0.0,63,0.00,CLR,,0.00,WeatherDisplay:10.37,2013-02-24 23:35:00,
2013-02-24 18:40:00,34.8,23.5,30.12,NW,321,0.0,0.0,63,0.00,CLR,,0.00,WeatherDisplay:10.37,2013-02-24 23:40:00,
2013-02-24 18:45:00,34.6,23.3,30.12,NW,321,0.0,0.0,63,0.00,CLR,,0.00,WeatherDisplay:10.37,2013-02-24 23:45:00,
2013-02-24 18:50:00,34.4,23.5,30.12,NW,321,0.0,0.0,64,0.00,CLR,,0.00,WeatherDisplay:10.37,2013-02-24 23:50:00,
2013-02-24 18:55:00,34.4,23.5,30.12,NW,321,0.0,0.0,64,0.00,CLR,,0.00,WeatherDisplay:10.37,2013-02-24 23:55:00,
2013-02-24 19:00:00,34.4,23.5,30.13,NW,321,0.0,0.0,64,0.00,CLR,,0.00,WeatherDisplay:10.37,2013-02-25 00:00:00,
2013-02-24 19:05:00,34.4,23.5,30.13,NW,321,0.0,0.0,64,0.00,CLR,,0.00,WeatherDisplay:10.37,2013-02-25 00:05:00,
2013-02-24 19:10:00,34.4,23.5,30.13,NW,321,0.0,0.0,64,0.00,CLR,,0.00,WeatherDisplay:10.37,2013-02-25 00:10:00,
2013-02-24 19:15:00,34.2,23.3,30.13,NW,321,0.0,0.0,64,0.00,CLR,,0.00,WeatherDisplay:10.37,2013-02-25 00:15:00,
2013-02-24 19:20:00,34.1,23.6,30.13,NW,321,0.0,0.0,65,0.00,CLR,,0.00,WeatherDisplay:10.37,2013-02-25 00:20:00,
2013-02-24 19:25:00,33.7,23.2,30.14,NW,321,0.0,0.0,65,0.00,CLR,,0.00,WeatherDisplay:10.37,2013-02-25 00:25:00,
2013-02-24 19:30:00,33.0,23.2,30.14,NW,321,0.0,0.0,67,0.00,CLR,,0.00,WeatherDisplay:10.37,2013-02-25 00:30:00,
2013-02-24 19:35:00,32.8,23.4,30.14,NW,321,0.0,0.0,68,0.00,CLR,,0.00,WeatherDisplay:10.37,2013-02-25 00:35:00,
2013-02-24 19:40:00,32.7,23.3,30.15,NW,321,0.0,0.0,68,0.00,CLR,,0.00,WeatherDisplay:10.37,2013-02-25 00:40:00,
2013-02-24 19:45:00,32.5,23.5,30.15,NW,321,0.0,0.0,69,0.00,CLR,,0.00,WeatherDisplay:10.37,2013-02-25 00:45:00,
2013-02-24 19:50:00,32.0,23.3,30.15,NW,321,0.0,0.0,70,0.00,CLR,,0.00,WeatherDisplay:10.37,2013-02-25 00:50:00,
2013-02-24 19:55:00,31.8,23.8,30.15,NW,321,0.0,0.0,72,0.00,CLR,,0.00,WeatherDisplay:10.37,2013-02-25 00:55:00,
2013-02-24 20:00:00,31.8,24.1,30.15,NW,321,0.0,0.0,73,0.00,CLR,,0.00,WeatherDisplay:10.37,2013-02-25 01:00:00,
2013-02-24 20:05:00,31.7,24.0,30.15,NW,321,0.0,0.0,73,0.00,CLR,,0.00,WeatherDisplay:10.37,2013-02-25 01:05:00,
2013-02-24 20:10:00,31.8,24.5,30.15,NW,321,0.0,0.0,74,0.00,CLR,,0.00,WeatherDisplay:10.37,2013-02-25 01:10:00,
2013-02-24 20:15:00,31.9,24.6,30.15,NW,321,0.0,0.0,74,0.00,CLR,,0.00,WeatherDisplay:10.37,2013-02-25 01:15:00,
2013-02-24 20:20:00,32.1,24.7,30.15,NW,321,0.0,0.0,74,0.00,CLR,,0.00,WeatherDisplay:10.37,2013-02-25 01:20:00,
2013-02-24 20:25:00,32.0,24.6,30.15,NW,321,0.0,0.0,74,0.00,CLR,,0.00,WeatherDisplay:10.37,2013-02-25 01:25:00,
2013-02-24 20:30:00,31.8,24.5,30.15,NW,321,0.0,0.0,74,0.00,CLR,,0.00,WeatherDisplay:10.37,2013-02-25 01:30:00,
2013-02-24 20:35:00,31.9,24.6,30.15,NW,321,0.0,0.0,74,0.00,CLR,,0.00,WeatherDisplay:10.37,2013-02-25 01:35:00,
2013-02-24 20:40:00,32.1,24.7,30.15,NW,321,0.0,0.0,74,0.00,CLR,,0.00,WeatherDisplay:10.37,2013-02-25 01:40:00,
2013-02-24 20:45:00,32.2,24.8,30.15,NW,321,0.0,0.0,74,0.00,CLR,,0.00,WeatherDisplay:10.37,2013-02-25 01:45:00,
2013-02-24 20:50:00,32.1,24.4,30.15,NW,321,0.0,0.0,73,0.00,CLR,,0.00,WeatherDisplay:10.37,2013-02-25 01:50:00,
2013-02-24 20:55:00,32.1,24.4,30.15,NW,321,0.0,0.0,73,0.00,CLR,,0.00,WeatherDisplay:10.37,2013-02-25 01:55:00,
2013-02-24 21:00:00,32.1,24.4,30.15,NW,321,0.0,0.0,73,0.00,CLR,,0.00,WeatherDisplay:10.37,2013-02-25 02:00:00,
2013-02-24 21:05:00,31.9,24.2,30.15,NW,321,0.0,0.0,73,0.00,CLR,,0.00,WeatherDisplay:10.37,2013-02-25 02:05:00,
2013-02-24 21:10:00,31.8,24.1,30.15,NW,321,0.0,0.0,73,0.00,CLR,,0.00,WeatherDisplay:10.37,2013-02-25 02:10:00,
2013-02-24 21:15:00,31.7,24.0,30.15,NW,321,0.0,0.0,73,0.00,CLR,,0.00,WeatherDisplay:10.37,2013-02-25 02:15:00,
2013-02-24 21:20:00,31.8,24.5,30.15,NW,321,0.0,0.0,74,0.00,CLR,,0.00,WeatherDisplay:10.37,2013-02-25 02:20:00,
2013-02-24 21:25:00,31.9,24.6,30.15,NW,321,0.0,0.0,74,0.00,CLR,CLR,0.00,WeatherDisplay:10.37,2013-02-25 02:25:00,
2013-02-24 21:30:00,31.9,24.6,30.15,NW,321,0.0,0.0,74,0.00,CLR,,0.00,WeatherDisplay:10.37,2013-02-25 02:30:00,
2013-02-24 21:35:00,32.1,24.7,30.15,NW,321,0.0,0.0,74,0.00,CLR,CLR,0.00,WeatherDisplay:10.37,2013-02-25 02:35:00,
2013-02-24 21:40:00,32.2,24.5,30.15,NW,321,0.0,0.0,73,0.00,CLR,,0.00,WeatherDisplay:10.37,2013-02-25 02:40:00,
2013-02-24 21:45:00,32.3,24.9,30.15,NW,321,0.0,0.0,74,0.00,CLR,,0.00,WeatherDisplay:10.37,2013-02-25 02:45:00,
2013-02-24 21:50:00,32.3,24.6,30.15,NW,321,0.0,0.0,73,0.00,CLR,,0.00,WeatherDisplay:10.37,2013-02-25 02:50:00,
2013-02-24 21:55:00,32.3,24.9,30.15,NW,321,0.0,0.0,74,0.00,CLR,CLR,0.00,WeatherDisplay:10.37,2013-02-25 02:55:00,
2013-02-24 22:00:00,32.3,24.6,30.15,NW,321,0.0,0.0,73,0.00,CLR,CLR,0.00,WeatherDisplay:10.37,2013-02-25 03:00:00,
2013-02-24 22:05:00,32.1,24.4,30.15,NW,321,0.0,0.0,73,0.00,CLR,CLR,0.00,WeatherDisplay:10.37,2013-02-25 03:05:00,
2013-02-24 22:10:00,31.9,24.2,30.15,NW,321,0.0,0.0,73,0.00,CLR,,0.00,WeatherDisplay:10.37,2013-02-25 03:10:00,
2013-02-24 22:15:00,31.9,24.6,30.15,NW,321,0.0,0.0,74,0.00,CLR,,0.00,WeatherDisplay:10.37,2013-02-25 03:15:00,
2013-02-24 22:20:00,31.7,24.0,30.16,NW,321,0.0,0.0,73,0.00,CLR,,0.00,WeatherDisplay:10.37,2013-02-25 03:20:00,
2013-02-24 22:25:00,31.6,24.3,30.16,NW,321,0.0,0.0,74,0.00,CLR,,0.00,WeatherDisplay:10.37,2013-02-25 03:25:00,
2013-02-24 22:30:00,31.5,24.2,30.15,NW,321,0.0,0.0,74,0.00,CLR,,0.00,WeatherDisplay:10.37,2013-02-25 03:30:00,
2013-02-24 22:35:00,31.2,24.2,30.15,NW,321,0.0,0.0,75,0.00,CLR,,0.00,WeatherDisplay:10.37,2013-02-25 03:35:00,
2013-02-24 22:40:00,30.8,24.1,30.15,NW,321,0.0,0.0,76,0.00,CLR,,0.00,WeatherDisplay:10.37,2013-02-25 03:40:00,
2013-02-24 22:45:00,30.8,24.4,30.15,NW,321,0.0,0.0,77,0.00,CLR,CLR,0.00,WeatherDisplay:10.37,2013-02-25 03:45:00,
2013-02-24 22:50:00,30.7,24.3,30.15,NW,321,0.0,0.0,77,0.00,CLR,,0.00,WeatherDisplay:10.37,2013-02-25 03:50:00,
2013-02-24 22:55:00,30.4,24.1,30.15,NW,321,0.0,0.0,77,0.00,CLR,,0.00,WeatherDisplay:10.37,2013-02-25 03:55:00,
2013-02-24 23:00:00,30.1,24.1,30.15,NW,321,0.0,0.0,78,0.00,CLR,,0.00,WeatherDisplay:10.37,2013-02-25 04:00:00,
2013-02-24 23:05:00,30.1,24.1,30.15,NW,321,0.0,0.0,78,0.00,CLR,CLR,0.00,WeatherDisplay:10.37,2013-02-25 04:05:00,
2013-02-24 23:10:00,30.2,24.2,30.15,NW,321,0.0,0.0,78,0.00,CLR,,0.00,WeatherDisplay:10.37,2013-02-25 04:10:00,
2013-02-24 23:15:00,30.3,24.0,30.15,NW,321,0.0,0.0,77,0.00,CLR,CLR,0.00,WeatherDisplay:10.37,2013-02-25 04:15:00,
2013-02-24 23:20:00,30.4,24.1,30.16,NW,321,0.0,0.0,77,0.00,CLR,,0.00,WeatherDisplay:10.37,2013-02-25 04:20:00,
2013-02-24 23:25:00,30.4,24.1,30.15,NW,321,0.0,0.0,77,0.00,CLR,CLR,0.00,WeatherDisplay:10.37,2013-02-25 04:25:00,
2013-02-24 23:30:00,30.4,24.1,30.15,NW,321,0.0,0.0,77,0.00,CLR,,0.00,WeatherDisplay:10.37,2013-02-25 04:30:00,
2013-02-24 23:35:00,30.4,24.1,30.15,NW,321,0.0,0.0,77,0.00,CLR,CLR,0.00,WeatherDisplay:10.37,2013-02-25 04:35:00,
2013-02-24 23:40:00,30.5,24.1,30.15,NW,321,0.0,0.0,77,0.00,CLR,,0.00,WeatherDisplay:10.37,2013-02-25 04:40:00,
2013-02-24 23:45:00,30.4,23.7,30.15,NW,321,0.0,0.0,76,0.00,CLR,,0.00,WeatherDisplay:10.37,2013-02-25 04:45:00,
2013-02-24 23:50:00,30.3,23.6,30.15,NW,321,0.0,0.0,76,0.00,CLR,,0.00,WeatherDisplay:10.37,2013-02-25 04:50:00,
2013-02-24 23:55:00,30.2,23.9,30.15,NW,321,0.0,0.0,77,0.00,CLR,,0.00,WeatherDisplay:10.37,2013-02-25 04:55:00,